createdAt,value
2023-05-05T16:04:07.398Z,1010.73
2023-05-05T16:04:13.751Z,1010.80
2023-05-05T16:04:23.701Z,1010.86
2023-05-05T16:04:33.603Z,1010.86
2023-05-05T16:04:43.789Z,1010.86
2023-05-05T16:04:53.975Z,1010.88
2023-05-05T16:05:14.182Z,1010.90
2023-05-05T16:05:25.391Z,1010.95
2023-05-05T16:05:34.380Z,1011.05
2023-05-05T16:05:44.444Z,1011.11
2023-05-05T16:05:54.714Z,1011.12
2023-05-05T16:06:05.833Z,1011.17
2023-05-05T16:06:14.951Z,1011.26
2023-05-05T16:06:35.825Z,1011.30
2023-05-05T16:06:45.483Z,1011.34
2023-05-05T16:06:55.353Z,1011.33
2023-05-05T16:07:05.498Z,1011.39
2023-05-05T16:07:15.750Z,1011.41
2023-05-05T16:07:26.825Z,1011.42
2023-05-05T16:07:35.860Z,1011.50
2023-05-05T16:07:46.106Z,1011.48
2023-05-05T16:07:55.964Z,1011.46
2023-05-05T16:08:06.333Z,1011.44
2023-05-05T16:08:16.473Z,1011.48
2023-05-05T16:08:26.875Z,1011.41
2023-05-05T16:08:36.875Z,1011.42
2023-05-05T16:08:46.942Z,1011.44
2023-05-05T16:09:00.581Z,1011.48
2023-05-05T16:09:13.587Z,1011.56
2023-05-05T16:09:19.440Z,1011.63
2023-05-05T16:09:30.423Z,1011.70
2023-05-05T16:09:39.749Z,1011.73
2023-05-05T16:09:50.070Z,1011.80
2023-05-05T16:10:00.894Z,1011.90
2023-05-05T16:10:20.427Z,1011.93
2023-05-05T16:10:30.457Z,1011.92
2023-05-05T16:10:40.678Z,1011.94
2023-05-05T16:10:50.729Z,1011.99
2023-05-05T16:11:00.677Z,1012.05
2023-05-05T16:11:12.726Z,1012.08
2023-05-05T16:11:38.956Z,1012.14
2023-05-05T16:11:45.317Z,1012.25
2023-05-05T16:11:55.241Z,1012.25
2023-05-05T16:12:05.885Z,1012.15
2023-05-05T16:12:15.453Z,1012.22
2023-05-05T16:12:25.480Z,1012.24
2023-05-05T16:12:45.637Z,1012.27
2023-05-05T16:12:55.904Z,1012.33
2023-05-05T16:13:06.896Z,1012.34
2023-05-05T16:13:16.042Z,1012.35
2023-05-05T16:13:26.355Z,1012.31
2023-05-05T16:13:36.285Z,1012.29
2023-05-05T16:13:46.441Z,1012.30
2023-05-05T16:13:56.537Z,1012.32
2023-05-05T16:14:17.037Z,1012.34
2023-05-05T16:14:27.106Z,1012.32
2023-05-05T16:14:37.108Z,1012.32
2023-05-05T16:14:47.818Z,1012.32
2023-05-05T16:14:59.059Z,1012.33
2023-05-05T16:15:08.032Z,1012.36
2023-05-05T16:15:17.663Z,1012.34
2023-05-05T16:15:27.942Z,1012.34
2023-05-05T16:15:38.255Z,1012.35
2023-05-05T16:15:48.122Z,1012.35
2023-05-05T16:16:07.989Z,1012.30
2023-05-05T16:16:18.738Z,1012.33
2023-05-05T16:16:28.316Z,1012.33
2023-05-05T16:16:38.418Z,1012.34
2023-05-05T16:16:49.239Z,1012.32
2023-05-05T16:16:58.744Z,1012.34
2023-05-05T16:17:08.620Z,1012.34
2023-05-05T16:17:22.632Z,1012.33
2023-05-05T16:17:29.342Z,1012.32
2023-05-05T16:17:40.178Z,1012.34
2023-05-05T16:17:49.594Z,1012.33
2023-05-05T16:17:59.718Z,1012.33
2023-05-05T16:18:11.151Z,1012.32
2023-05-05T16:18:29.689Z,1012.36
2023-05-05T16:18:41.383Z,1012.34
2023-05-05T16:18:50.076Z,1012.38
2023-05-05T16:19:00.745Z,1012.43
2023-05-05T16:20:38.409Z,1012.43
2023-05-05T16:20:45.111Z,1012.70
2023-05-05T16:20:54.437Z,1012.70
2023-05-05T16:21:04.599Z,1012.70
2023-05-05T16:21:14.966Z,1012.69
2023-05-05T16:21:24.686Z,1012.73
2023-05-05T16:21:44.093Z,1012.72
2023-05-05T16:21:55.270Z,1012.77
2023-05-05T16:22:06.440Z,1012.74
2023-05-05T16:22:15.408Z,1012.77
2023-05-05T16:22:25.596Z,1012.81
2023-05-05T16:22:35.715Z,1012.85
2023-05-05T16:22:45.863Z,1012.86
2023-05-05T16:22:55.881Z,1012.88
2023-05-05T16:23:16.128Z,1012.83
2023-05-05T16:23:26.334Z,1012.86
2023-05-05T16:23:36.510Z,1012.88
2023-05-05T16:23:46.499Z,1012.90
2023-05-05T16:23:56.792Z,1012.88
2023-05-05T16:24:06.770Z,1012.91
2023-05-05T16:24:16.923Z,1012.91
2023-05-05T16:24:26.989Z,1012.89
2023-05-05T16:24:39.381Z,1012.90
2023-05-05T16:24:47.230Z,1012.91
2023-05-05T16:24:57.477Z,1012.90
2023-05-05T16:25:07.550Z,1012.92
2023-05-05T16:25:17.672Z,1012.95
2023-05-05T16:25:27.728Z,1012.92
2023-05-05T16:25:47.097Z,1012.93
2023-05-05T16:25:58.186Z,1012.92
2023-05-05T16:26:08.363Z,1012.96
2023-05-05T16:26:18.430Z,1012.96
2023-05-05T16:26:28.625Z,1012.96
2023-05-05T16:26:38.658Z,1012.94
2023-05-05T16:26:48.800Z,1012.98
2023-05-05T16:26:58.908Z,1012.98
2023-05-05T16:27:08.966Z,1012.97
2023-05-05T16:27:20.184Z,1012.95
2023-05-05T16:27:30.158Z,1012.96
2023-05-05T16:27:40.566Z,1012.99
2023-05-05T16:27:49.700Z,1013.03
2023-05-05T16:27:59.552Z,1012.94
2023-05-05T16:28:09.825Z,1012.99
2023-05-05T16:28:32.740Z,1012.93
2023-05-05T16:28:42.878Z,1012.93
2023-05-05T16:28:50.251Z,1012.86
2023-05-05T16:29:00.445Z,1012.87
2023-05-05T16:29:10.488Z,1012.87
2023-05-05T16:29:20.694Z,1012.87
2023-05-05T16:29:42.661Z,1012.87
2023-05-05T16:29:51.088Z,1012.86
2023-05-05T16:30:01.109Z,1012.87
2023-05-05T16:30:11.324Z,1012.86
2023-05-05T16:30:21.407Z,1012.88
2023-05-05T16:30:31.475Z,1012.84
2023-05-05T16:30:52.062Z,1012.84
2023-05-05T16:31:02.085Z,1012.86
2023-05-05T16:31:12.395Z,1012.86
2023-05-05T16:31:22.343Z,1012.85
2023-05-05T16:31:32.748Z,1012.86
2023-05-05T16:31:42.724Z,1012.84
2023-05-05T16:31:52.656Z,1012.86
2023-05-05T16:32:02.817Z,1012.83
2023-05-05T16:32:12.860Z,1012.82
2023-05-05T16:32:23.213Z,1012.85
2023-05-05T16:32:33.140Z,1012.84
2023-05-05T16:32:43.901Z,1012.84
2023-05-05T16:32:53.483Z,1012.86
2023-05-05T16:33:03.665Z,1012.83
2023-05-05T16:33:14.077Z,1012.84
2023-05-05T16:33:24.168Z,1012.86
2023-05-05T16:33:33.802Z,1012.88
2023-05-05T16:33:44.091Z,1012.88
2023-05-05T16:33:54.140Z,1012.85
2023-05-05T16:34:04.206Z,1012.85
2023-05-05T16:34:14.530Z,1012.88
2023-05-05T16:34:24.524Z,1012.84
2023-05-05T16:34:34.621Z,1012.83
2023-05-05T16:34:45.161Z,1012.86
2023-05-05T16:34:54.948Z,1012.83
2023-05-05T16:35:05.237Z,1012.81
2023-05-05T16:35:15.336Z,1012.80
2023-05-05T16:35:25.415Z,1012.78
2023-05-05T16:35:35.590Z,1012.70
2023-05-05T16:35:45.604Z,1012.72
2023-05-05T16:35:55.900Z,1012.64
2023-05-05T16:36:05.806Z,1012.64
2023-05-05T16:36:15.985Z,1012.59
2023-05-05T16:36:26.169Z,1012.58
2023-05-05T16:36:36.213Z,1012.50
2023-05-05T16:36:46.444Z,1012.48
2023-05-05T16:36:56.515Z,1012.48
2023-05-05T16:37:06.606Z,1012.39
2023-05-05T16:37:16.788Z,1012.38
2023-05-05T16:37:26.898Z,1012.35
2023-05-05T16:37:37.050Z,1012.33
2023-05-05T16:37:47.793Z,1012.27
2023-05-05T16:37:57.373Z,1012.26
2023-05-05T16:38:07.861Z,1012.24
2023-05-05T16:38:17.470Z,1012.16
2023-05-05T16:38:27.676Z,1012.17
2023-05-05T16:38:37.840Z,1012.06
2023-05-05T16:38:47.992Z,1012.03
2023-05-05T16:38:57.970Z,1012.00
2023-05-05T16:39:08.134Z,1011.95
2023-05-05T16:39:18.495Z,1011.87
2023-05-05T16:39:28.360Z,1011.81
2023-05-05T16:39:38.478Z,1011.84
2023-05-05T16:39:48.621Z,1011.87
2023-05-05T16:39:58.819Z,1011.82
2023-05-05T16:40:08.900Z,1011.81
2023-05-05T16:40:18.979Z,1011.80
2023-05-05T16:40:29.237Z,1011.77
2023-05-05T16:40:39.280Z,1011.70
2023-05-05T16:40:49.496Z,1011.66
2023-05-05T16:40:59.596Z,1011.64
2023-05-05T16:41:09.769Z,1011.60
2023-05-05T16:41:19.719Z,1011.55
2023-05-05T16:41:30.011Z,1011.52
2023-05-05T16:41:41.294Z,1011.35
2023-05-05T16:41:54.293Z,1011.37
2023-05-05T16:42:06.874Z,1011.24
2023-05-05T16:42:13.381Z,1011.10
2023-05-05T16:42:25.317Z,1011.04
2023-05-05T16:42:37.024Z,1010.97
2023-05-05T16:42:46.262Z,1010.90
2023-05-05T16:42:55.315Z,1010.90
2023-05-05T16:43:17.901Z,1010.97
2023-05-05T16:43:25.610Z,1011.00
2023-05-05T16:43:35.854Z,1011.00
2023-05-05T16:43:46.132Z,1010.98
2023-05-05T16:43:58.292Z,1010.94
2023-05-05T16:44:06.140Z,1010.98
2023-05-05T16:44:23.330Z,1010.98
2023-05-05T16:44:38.748Z,1010.98
2023-05-05T16:44:44.812Z,1010.98
2023-05-05T16:44:55.274Z,1011.01
2023-05-05T16:45:06.464Z,1010.97
2023-05-05T16:45:15.542Z,1010.96
2023-05-05T16:45:28.112Z,1010.95
2023-05-05T16:45:51.296Z,1010.95
2023-05-05T16:45:59.934Z,1010.99
2023-05-05T16:46:11.280Z,1010.98
2023-05-05T16:46:18.137Z,1010.90
2023-05-05T16:46:28.137Z,1010.77
2023-05-05T16:46:43.906Z,1010.70
2023-05-05T16:47:01.516Z,1010.47
2023-05-05T16:47:09.489Z,1010.34
2023-05-05T16:47:20.612Z,1010.21
2023-05-05T16:47:29.754Z,1010.01
2023-05-05T16:47:40.709Z,1010.00
2023-05-05T16:47:55.272Z,1009.85
2023-05-05T16:48:57.169Z,1009.66
2023-05-05T16:49:06.563Z,1009.52
2023-05-05T16:49:12.395Z,1009.58
2023-05-05T16:49:22.690Z,1009.69
2023-05-05T16:49:32.803Z,1009.77
2023-05-05T16:49:43.466Z,1009.93
2023-05-05T16:50:03.192Z,1010.09
2023-05-05T16:50:13.254Z,1010.14
2023-05-05T16:50:23.301Z,1010.38
2023-05-05T16:50:33.514Z,1010.45
2023-05-05T16:50:43.646Z,1010.49
2023-05-05T16:50:53.833Z,1010.54
2023-05-05T16:51:04.023Z,1010.52
2023-05-05T16:51:14.014Z,1010.56
2023-05-05T16:51:24.240Z,1010.57
2023-05-05T16:51:34.251Z,1010.60
2023-05-05T16:51:44.435Z,1010.57
2023-05-05T16:51:54.475Z,1010.57
2023-05-05T16:52:04.737Z,1010.63
2023-05-05T16:52:18.789Z,1010.65
2023-05-05T16:52:25.167Z,1010.66
2023-05-05T16:52:35.263Z,1010.65
2023-05-05T16:52:45.235Z,1010.64
2023-05-05T16:53:01.535Z,1010.66
2023-05-05T16:53:10.538Z,1010.63
